Island Fox — FOX — position and weather

sailwx.info

Track history (hours):
 
Tides and Currents Weather Stations Pressure Air Temp Water Temp Dewpoint Dewpoint Depression Visibility Wind Speed Wind Dir Waves Ship Positions

Island Fox

Last reported at 2017-Sep-24 01:35 UTC. Time now 2017-Sep-24 19:38 UTC.
Position N 34°09' W 119°12'.

Length 28 m; draft 3 m.

Type: Military. MMSI: 368926007.

Date/timePositionNaut miles runAvg speedWind from/ knotsBaromVisibWave heightAir tempDewpointWater temp
2017-Sep-24 01:35N 34°09' W 119°12'0 0.0
2017-Sep-24 01:06N 34°09' W 119°12'0 0.0
2017-Sep-24 01:00N 34°09' W 119°12'4 7.4
2017-Sep-24 00:31N 34°06' W 119°14'712.8
2017-Sep-23 23:58N 33°59' W 119°16'612.8
2017-Sep-23 23:30N 33°53' W 119°16'713.2
2017-Sep-23 23:00N 33°47' W 119°17'3 6.6
2017-Sep-23 22:31N 33°43' W 119°16'3 5.8
2017-Sep-23 22:00N 33°41' W 119°14'1 3.0
2017-Sep-23 21:30N 33°43' W 119°14'2 4.3
2017-Sep-23 21:00N 33°44' W 119°16'1 2.6
2017-Sep-23 20:30N 33°43' W 119°15'3 5.8
2017-Sep-23 20:00N 33°43' W 119°18'  
Track history (hours):
 
Tides and Currents Weather Stations Pressure Air Temp Water Temp Dewpoint Dewpoint Depression Visibility Wind Speed Wind Dir Waves Ship Positions

Island Fox

Last reported at 2017-Sep-24 01:35 UTC. Time now 2017-Sep-24 19:38 UTC.
Position N 34°09' W 119°12'.

Length 28 m; draft 3 m.

Type: Military. MMSI: 368926007.

Date/timePositionNaut miles runAvg speedWind from/ knotsBaromVisibWave heightAir tempDewpointWater temp
2017-Sep-24 01:35N 34°09' W 119°12'0 0.0
2017-Sep-24 01:06N 34°09' W 119°12'0 0.0
2017-Sep-24 01:00N 34°09' W 119°12'4 7.4
2017-Sep-24 00:31N 34°06' W 119°14'712.8
2017-Sep-23 23:58N 33°59' W 119°16'612.8
2017-Sep-23 23:30N 33°53' W 119°16'713.2
2017-Sep-23 23:00N 33°47' W 119°17'3 6.6
2017-Sep-23 22:31N 33°43' W 119°16'3 5.8
2017-Sep-23 22:00N 33°41' W 119°14'1 3.0
2017-Sep-23 21:30N 33°43' W 119°14'2 4.3
2017-Sep-23 21:00N 33°44' W 119°16'1 2.6
2017-Sep-23 20:30N 33°43' W 119°15'3 5.8
2017-Sep-23 20:00N 33°43' W 119°18'  

Dump ship's entire track history